sensor_id;sensor_type;location;lat;lon;timestamp;P1;durP1;ratioP1;P2;durP2;ratioP2
63945;SDS011;50122;56.330;43.838;2022-08-19T00:01:29;41.97;;;22.40;;
63945;SDS011;50122;56.330;43.838;2022-08-19T00:03:57;41.22;;;23.38;;
63945;SDS011;50122;56.330;43.838;2022-08-19T00:06:25;42.25;;;25.13;;
63945;SDS011;50122;56.330;43.838;2022-08-19T00:08:53;43.20;;;26.35;;
63945;SDS011;50122;56.330;43.838;2022-08-19T00:11:20;49.75;;;27.17;;
63945;SDS011;50122;56.330;43.838;2022-08-19T00:13:51;50.15;;;28.40;;
63945;SDS011;50122;56.330;43.838;2022-08-19T00:16:19;48.50;;;29.85;;
63945;SDS011;50122;56.330;43.838;2022-08-19T00:18:51;54.72;;;32.42;;
63945;SDS011;50122;56.330;43.838;2022-08-19T00:21:18;64.07;;;34.35;;
63945;SDS011;50122;56.330;43.838;2022-08-19T00:23:45;70.35;;;36.15;;
63945;SDS011;50122;56.330;43.838;2022-08-19T00:26:12;65.18;;;36.95;;
63945;SDS011;50122;56.330;43.838;2022-08-19T00:28:39;65.97;;;37.35;;
63945;SDS011;50122;56.330;43.838;2022-08-19T00:31:06;61.83;;;38.45;;
63945;SDS011;50122;56.330;43.838;2022-08-19T00:33:34;82.13;;;40.88;;
63945;SDS011;50122;56.330;43.838;2022-08-19T00:36:07;68.93;;;38.05;;
63945;SDS011;50122;56.330;43.838;2022-08-19T00:38:35;74.35;;;41.15;;
63945;SDS011;50122;56.330;43.838;2022-08-19T00:41:04;76.22;;;41.97;;
63945;SDS011;50122;56.330;43.838;2022-08-19T00:43:32;73.43;;;41.33;;
63945;SDS011;50122;56.330;43.838;2022-08-19T00:45:59;82.05;;;43.60;;
63945;SDS011;50122;56.330;43.838;2022-08-19T00:48:29;79.97;;;44.22;;
63945;SDS011;50122;56.330;43.838;2022-08-19T00:50:58;78.25;;;44.35;;
63945;SDS011;50122;56.330;43.838;2022-08-19T00:53:26;76.45;;;43.33;;
63945;SDS011;50122;56.330;43.838;2022-08-19T00:55:55;75.82;;;42.47;;
63945;SDS011;50122;56.330;43.838;2022-08-19T00:58:25;73.53;;;42.25;;
63945;SDS011;50122;56.330;43.838;2022-08-19T01:00:55;79.38;;;42.65;;
63945;SDS011;50122;56.330;43.838;2022-08-19T01:03:22;79.07;;;42.28;;
63945;SDS011;50122;56.330;43.838;2022-08-19T01:05:51;76.70;;;42.00;;
63945;SDS011;50122;56.330;43.838;2022-08-19T01:08:20;76.47;;;42.58;;
63945;SDS011;50122;56.330;43.838;2022-08-19T01:10:48;73.05;;;40.47;;
63945;SDS011;50122;56.330;43.838;2022-08-19T01:13:19;73.10;;;42.15;;
63945;SDS011;50122;56.330;43.838;2022-08-19T01:15:50;74.28;;;41.55;;
63945;SDS011;50122;56.330;43.838;2022-08-19T01:18:25;75.90;;;41.17;;
63945;SDS011;50122;56.330;43.838;2022-08-19T01:20:54;72.32;;;40.20;;
63945;SDS011;50122;56.330;43.838;2022-08-19T01:23:24;74.32;;;38.35;;
63945;SDS011;50122;56.330;43.838;2022-08-19T01:26:10;64.95;;;38.60;;
63945;SDS011;50122;56.330;43.838;2022-08-19T01:28:49;70.35;;;38.70;;
63945;SDS011;50122;56.330;43.838;2022-08-19T01:31:20;72.78;;;39.08;;
63945;SDS011;50122;56.330;43.838;2022-08-19T01:33:54;70.18;;;38.45;;
63945;SDS011;50122;56.330;43.838;2022-08-19T01:38:57;69.88;;;38.15;;
63945;SDS011;50122;56.330;43.838;2022-08-19T01:41:25;66.22;;;39.00;;
63945;SDS011;50122;56.330;43.838;2022-08-19T01:43:52;68.95;;;37.72;;
63945;SDS011;50122;56.330;43.838;2022-08-19T01:46:40;63.80;;;37.17;;
63945;SDS011;50122;56.330;43.838;2022-08-19T01:49:07;61.40;;;36.90;;
63945;SDS011;50122;56.330;43.838;2022-08-19T01:51:36;66.78;;;37.55;;
63945;SDS011;50122;56.330;43.838;2022-08-19T01:54:06;65.90;;;36.60;;
63945;SDS011;50122;56.330;43.838;2022-08-19T01:56:34;63.20;;;35.85;;
63945;SDS011;50122;56.330;43.838;2022-08-19T01:59:03;59.60;;;34.85;;
63945;SDS011;50122;56.330;43.838;2022-08-19T02:01:33;64.43;;;33.90;;
63945;SDS011;50122;56.330;43.838;2022-08-19T02:04:02;57.35;;;33.15;;
63945;SDS011;50122;56.330;43.838;2022-08-19T02:06:29;58.40;;;34.42;;
63945;SDS011;50122;56.330;43.838;2022-08-19T02:08:55;59.53;;;33.13;;
63945;SDS011;50122;56.330;43.838;2022-08-19T02:11:25;65.60;;;33.58;;
63945;SDS011;50122;56.330;43.838;2022-08-19T02:13:58;55.63;;;32.05;;
63945;SDS011;50122;56.330;43.838;2022-08-19T02:16:28;57.50;;;32.15;;
63945;SDS011;50122;56.330;43.838;2022-08-19T02:18:55;56.80;;;31.42;;
63945;SDS011;50122;56.330;43.838;2022-08-19T02:21:23;52.00;;;30.63;;
63945;SDS011;50122;56.330;43.838;2022-08-19T02:23:52;54.97;;;29.23;;
63945;SDS011;50122;56.330;43.838;2022-08-19T02:26:19;44.58;;;28.08;;
63945;SDS011;50122;56.330;43.838;2022-08-19T02:28:46;49.80;;;28.52;;
63945;SDS011;50122;56.330;43.838;2022-08-19T02:31:16;49.15;;;28.58;;
63945;SDS011;50122;56.330;43.838;2022-08-19T02:33:46;53.20;;;27.70;;
63945;SDS011;50122;56.330;43.838;2022-08-19T02:36:13;48.78;;;28.73;;
63945;SDS011;50122;56.330;43.838;2022-08-19T02:38:46;50.80;;;26.70;;
63945;SDS011;50122;56.330;43.838;2022-08-19T02:41:38;46.83;;;26.65;;
63945;SDS011;50122;56.330;43.838;2022-08-19T02:44:05;51.58;;;26.85;;
63945;SDS011;50122;56.330;43.838;2022-08-19T02:46:52;46.20;;;26.80;;
63945;SDS011;50122;56.330;43.838;2022-08-19T02:49:18;48.10;;;24.95;;
63945;SDS011;50122;56.330;43.838;2022-08-19T02:51:46;45.42;;;26.05;;
63945;SDS011;50122;56.330;43.838;2022-08-19T02:54:13;47.15;;;25.52;;
63945;SDS011;50122;56.330;43.838;2022-08-19T02:56:42;43.88;;;24.02;;
63945;SDS011;50122;56.330;43.838;2022-08-19T02:59:09;43.28;;;24.55;;
63945;SDS011;50122;56.330;43.838;2022-08-19T03:01:38;51.03;;;25.30;;
63945;SDS011;50122;56.330;43.838;2022-08-19T03:04:08;48.28;;;24.92;;
63945;SDS011;50122;56.330;43.838;2022-08-19T03:06:37;48.67;;;25.00;;
63945;SDS011;50122;56.330;43.838;2022-08-19T03:09:06;38.50;;;23.45;;
63945;SDS011;50122;56.330;43.838;2022-08-19T03:11:33;41.60;;;22.80;;
63945;SDS011;50122;56.330;43.838;2022-08-19T03:14:01;40.75;;;22.88;;
63945;SDS011;50122;56.330;43.838;2022-08-19T03:16:29;38.20;;;23.05;;
63945;SDS011;50122;56.330;43.838;2022-08-19T03:18:59;40.53;;;22.02;;
63945;SDS011;50122;56.330;43.838;2022-08-19T03:21:29;48.13;;;23.10;;
63945;SDS011;50122;56.330;43.838;2022-08-19T03:23:57;41.80;;;22.55;;
63945;SDS011;50122;56.330;43.838;2022-08-19T03:26:27;45.42;;;22.08;;
63945;SDS011;50122;56.330;43.838;2022-08-19T14:11:32;9.27;;;2.10;;
63945;SDS011;50122;56.330;43.838;2022-08-19T14:13:59;14.90;;;2.75;;
63945;SDS011;50122;56.330;43.838;2022-08-19T14:19:13;16.70;;;2.30;;
63945;SDS011;50122;56.330;43.838;2022-08-19T14:21:40;17.45;;;2.28;;
63945;SDS011;50122;56.330;43.838;2022-08-19T14:24:07;12.52;;;2.20;;
63945;SDS011;50122;56.330;43.838;2022-08-19T14:26:35;11.73;;;2.10;;
63945;SDS011;50122;56.330;43.838;2022-08-19T14:29:01;18.70;;;3.10;;
63945;SDS011;50122;56.330;43.838;2022-08-19T14:31:28;17.77;;;2.67;;
63945;SDS011;50122;56.330;43.838;2022-08-19T14:33:56;10.90;;;2.90;;
63945;SDS011;50122;56.330;43.838;2022-08-19T14:36:22;14.70;;;2.70;;
63945;SDS011;50122;56.330;43.838;2022-08-19T14:38:49;10.23;;;2.58;;
63945;SDS011;50122;56.330;43.838;2022-08-19T14:41:17;15.90;;;2.47;;
63945;SDS011;50122;56.330;43.838;2022-08-19T14:43:49;20.67;;;2.78;;
63945;SDS011;50122;56.330;43.838;2022-08-19T14:46:18;11.43;;;2.80;;
63945;SDS011;50122;56.330;43.838;2022-08-19T14:48:47;12.52;;;2.42;;
63945;SDS011;50122;56.330;43.838;2022-08-19T14:51:19;21.95;;;3.05;;
63945;SDS011;50122;56.330;43.838;2022-08-19T14:53:46;18.40;;;2.63;;
63945;SDS011;50122;56.330;43.838;2022-08-19T14:56:17;12.38;;;2.72;;
63945;SDS011;50122;56.330;43.838;2022-08-19T14:58:46;16.10;;;2.67;;
63945;SDS011;50122;56.330;43.838;2022-08-19T15:01:13;9.68;;;2.58;;
63945;SDS011;50122;56.330;43.838;2022-08-19T15:03:40;16.83;;;2.38;;
63945;SDS011;50122;56.330;43.838;2022-08-19T15:06:07;16.48;;;2.60;;
63945;SDS011;50122;56.330;43.838;2022-08-19T15:08:38;5.93;;;2.25;;
63945;SDS011;50122;56.330;43.838;2022-08-19T15:11:08;10.23;;;2.53;;
63945;SDS011;50122;56.330;43.838;2022-08-19T15:13:37;12.50;;;2.95;;
63945;SDS011;50122;56.330;43.838;2022-08-19T15:16:05;14.85;;;2.75;;
63945;SDS011;50122;56.330;43.838;2022-08-19T15:18:43;12.68;;;2.60;;
63945;SDS011;50122;56.330;43.838;2022-08-19T15:21:12;12.70;;;3.10;;
63945;SDS011;50122;56.330;43.838;2022-08-19T15:23:40;13.45;;;2.80;;
63945;SDS011;50122;56.330;43.838;2022-08-19T15:26:10;12.85;;;2.90;;
63945;SDS011;50122;56.330;43.838;2022-08-19T15:28:41;14.05;;;2.95;;
63945;SDS011;50122;56.330;43.838;2022-08-19T15:31:08;14.93;;;2.75;;
63945;SDS011;50122;56.330;43.838;2022-08-19T15:33:53;18.48;;;3.22;;
63945;SDS011;50122;56.330;43.838;2022-08-19T15:36:23;30.67;;;4.25;;
63945;SDS011;50122;56.330;43.838;2022-08-19T15:38:51;14.15;;;2.85;;
63945;SDS011;50122;56.330;43.838;2022-08-19T15:41:22;11.75;;;2.83;;
63945;SDS011;50122;56.330;43.838;2022-08-19T15:44:14;11.95;;;2.70;;
63945;SDS011;50122;56.330;43.838;2022-08-19T15:46:44;12.52;;;3.00;;
63945;SDS011;50122;56.330;43.838;2022-08-19T15:49:14;11.57;;;2.60;;
63945;SDS011;50122;56.330;43.838;2022-08-19T15:51:44;10.63;;;3.10;;
63945;SDS011;50122;56.330;43.838;2022-08-19T15:54:17;12.25;;;2.95;;
63945;SDS011;50122;56.330;43.838;2022-08-19T15:56:47;15.55;;;3.20;;
63945;SDS011;50122;56.330;43.838;2022-08-19T15:59:43;11.13;;;2.75;;
63945;SDS011;50122;56.330;43.838;2022-08-19T16:02:29;11.90;;;3.25;;
63945;SDS011;50122;56.330;43.838;2022-08-19T16:05:20;9.05;;;2.60;;
63945;SDS011;50122;56.330;43.838;2022-08-19T16:08:11;20.98;;;3.97;;
63945;SDS011;50122;56.330;43.838;2022-08-19T16:10:38;7.00;;;2.70;;
63945;SDS011;50122;56.330;43.838;2022-08-19T16:13:06;13.35;;;2.67;;
63945;SDS011;50122;56.330;43.838;2022-08-19T16:15:54;8.82;;;2.80;;
63945;SDS011;50122;56.330;43.838;2022-08-19T16:18:22;11.63;;;3.10;;
63945;SDS011;50122;56.330;43.838;2022-08-19T16:20:50;10.07;;;2.85;;
63945;SDS011;50122;56.330;43.838;2022-08-19T16:23:19;6.60;;;2.80;;
63945;SDS011;50122;56.330;43.838;2022-08-19T16:25:45;11.13;;;2.95;;
63945;SDS011;50122;56.330;43.838;2022-08-19T16:28:12;15.48;;;3.17;;
63945;SDS011;50122;56.330;43.838;2022-08-19T16:30:40;12.07;;;2.95;;
63945;SDS011;50122;56.330;43.838;2022-08-19T16:33:13;9.70;;;3.05;;
63945;SDS011;50122;56.330;43.838;2022-08-19T16:35:48;11.13;;;3.30;;
63945;SDS011;50122;56.330;43.838;2022-08-19T16:38:32;9.23;;;3.20;;
63945;SDS011;50122;56.330;43.838;2022-08-19T16:40:59;16.83;;;3.47;;
63945;SDS011;50122;56.330;43.838;2022-08-19T16:43:27;10.18;;;2.97;;
63945;SDS011;50122;56.330;43.838;2022-08-19T16:45:55;7.40;;;3.08;;
63945;SDS011;50122;56.330;43.838;2022-08-19T16:48:23;13.30;;;2.95;;
63945;SDS011;50122;56.330;43.838;2022-08-19T16:50:57;15.23;;;3.75;;
63945;SDS011;50122;56.330;43.838;2022-08-19T16:53:26;10.30;;;3.10;;
63945;SDS011;50122;56.330;43.838;2022-08-19T16:55:57;9.50;;;3.55;;
63945;SDS011;50122;56.330;43.838;2022-08-19T16:58:25;12.18;;;3.33;;
63945;SDS011;50122;56.330;43.838;2022-08-19T17:00:55;21.98;;;4.15;;
63945;SDS011;50122;56.330;43.838;2022-08-19T17:03:28;30.88;;;4.57;;
63945;SDS011;50122;56.330;43.838;2022-08-19T17:06:02;8.90;;;3.25;;
63945;SDS011;50122;56.330;43.838;2022-08-19T17:08:46;8.43;;;3.30;;
63945;SDS011;50122;56.330;43.838;2022-08-19T17:11:15;8.50;;;3.80;;
